createdAt,value
2022-07-30T00:01:36.037Z,99405.41
2022-07-30T00:04:04.654Z,99407.31
2022-07-30T00:06:33.078Z,99412.44
2022-07-30T00:09:01.336Z,99404.34
2022-07-30T00:11:50.089Z,99408.63
2022-07-30T00:14:21.397Z,99407.25
2022-07-30T00:16:49.464Z,99403.16
2022-07-30T00:19:20.390Z,99399.00
2022-07-30T00:21:51.022Z,99405.75
2022-07-30T00:24:20.128Z,99398.38
2022-07-30T00:26:48.368Z,99398.25
2022-07-30T00:29:16.890Z,99393.88
2022-07-30T00:31:49.085Z,99387.97
2022-07-30T00:34:30.416Z,99380.66
2022-07-30T00:36:57.774Z,99383.28
2022-07-30T00:39:25.204Z,99381.28
2022-07-30T00:42:15.277Z,99374.16
2022-07-30T00:44:43.537Z,99371.91
2022-07-30T00:47:15.564Z,99379.16
2022-07-30T00:49:44.467Z,99383.03
2022-07-30T00:52:13.931Z,99385.69
2022-07-30T00:54:46.011Z,99382.31
2022-07-30T00:57:18.221Z,99383.91
2022-07-30T00:59:46.218Z,99382.44
2022-07-30T01:02:41.268Z,99383.47
2022-07-30T01:05:14.817Z,99383.91
2022-07-30T01:07:42.287Z,99370.66
2022-07-30T01:10:16.328Z,99361.91
2022-07-30T01:13:09.293Z,99361.06
2022-07-30T01:15:39.011Z,99365.97
2022-07-30T01:18:10.551Z,99378.16
2022-07-30T01:20:46.135Z,99383.47
2022-07-30T01:23:36.970Z,99376.31
2022-07-30T01:26:15.270Z,99358.72
2022-07-30T01:28:54.308Z,99360.97
2022-07-30T01:31:25.715Z,99358.19
2022-07-30T01:34:01.859Z,99355.06
2022-07-30T01:36:42.783Z,99356.16
2022-07-30T01:39:11.873Z,99355.72
2022-07-30T01:41:42.731Z,99360.41
2022-07-30T01:44:15.329Z,99357.53
2022-07-30T01:46:56.080Z,99359.47
2022-07-30T01:49:39.589Z,99349.53
2022-07-30T01:52:10.133Z,99349.31
2022-07-30T01:54:39.666Z,99345.53
2022-07-30T01:57:18.919Z,99340.53
2022-07-30T01:59:50.707Z,99339.34
2022-07-30T02:02:18.846Z,99349.31
2022-07-30T02:04:54.345Z,99344.63
2022-07-30T02:07:59.351Z,99354.44
2022-07-30T02:10:51.616Z,99352.75
2022-07-30T02:13:27.068Z,99343.03
2022-07-30T02:16:09.725Z,99342.50
2022-07-30T02:19:04.363Z,99340.53
2022-07-30T02:21:39.221Z,99337.66
2022-07-30T02:24:13.083Z,99331.97
2022-07-30T02:26:44.523Z,99330.25
2022-07-30T02:29:20.098Z,99327.38
2022-07-30T02:31:48.719Z,99326.41
2022-07-30T02:34:24.603Z,99323.94
2022-07-30T02:36:54.694Z,99319.56
2022-07-30T02:39:34.196Z,99326.00
2022-07-30T02:42:21.568Z,99323.63
2022-07-30T02:45:13.630Z,99326.59
2022-07-30T02:47:42.886Z,99326.59
2022-07-30T02:50:14.443Z,99334.75
2022-07-30T02:52:49.724Z,99330.25
2022-07-30T02:55:18.847Z,99330.78
2022-07-30T02:57:49.039Z,99328.34
2022-07-30T03:00:24.932Z,99330.53
2022-07-30T03:02:59.957Z,99328.34
2022-07-30T03:05:32.486Z,99335.66
2022-07-30T03:08:03.771Z,99337.78
2022-07-30T03:10:56.395Z,99339.41
2022-07-30T03:13:24.960Z,99327.97
2022-07-30T03:15:54.235Z,99325.44
2022-07-30T03:18:24.590Z,99325.22
2022-07-30T03:20:58.370Z,99331.81
2022-07-30T03:23:25.785Z,99336.00
2022-07-30T03:26:05.690Z,99331.09
2022-07-30T03:28:37.065Z,99315.50
2022-07-30T03:31:05.888Z,99310.91
2022-07-30T03:33:40.663Z,99320.50
2022-07-30T03:36:13.597Z,99320.09
2022-07-30T03:38:42.900Z,99315.16
2022-07-30T03:41:12.153Z,99313.91
2022-07-30T03:43:49.908Z,99310.69
2022-07-30T03:46:18.401Z,99300.66
2022-07-30T03:48:52.902Z,99306.69
2022-07-30T03:51:25.455Z,99301.56
2022-07-30T03:54:03.210Z,99300.28
2022-07-30T03:56:36.464Z,99293.75
2022-07-30T03:59:04.773Z,99290.03
2022-07-30T04:01:32.926Z,99284.56
2022-07-30T04:04:10.634Z,99281.13
2022-07-30T04:06:40.909Z,99278.53
2022-07-30T04:09:09.414Z,99288.28
2022-07-30T04:11:41.612Z,99288.56
2022-07-30T04:14:10.168Z,99295.44
2022-07-30T04:16:56.389Z,99290.50
2022-07-30T04:19:28.947Z,99283.63
2022-07-30T04:21:59.061Z,99288.50
2022-07-30T04:24:28.910Z,99296.91
2022-07-30T04:26:59.738Z,99298.91
2022-07-30T04:29:29.426Z,99307.13
2022-07-30T04:31:58.151Z,99313.91
2022-07-30T04:34:28.912Z,99306.97
2022-07-30T04:37:05.125Z,99303.97
2022-07-30T04:39:34.226Z,99307.41
2022-07-30T04:42:07.367Z,99312.88
2022-07-30T04:44:34.767Z,99307.75
2022-07-30T04:47:07.897Z,99306.44
2022-07-30T04:49:37.989Z,99300.31
2022-07-30T04:52:08.516Z,99300.31
2022-07-30T04:54:44.061Z,99299.72
2022-07-30T04:57:13.267Z,99305.50
2022-07-30T04:59:42.458Z,99298.38
2022-07-30T05:02:12.401Z,99303.41
2022-07-30T05:04:44.984Z,99312.31
2022-07-30T05:07:15.016Z,99320.13
2022-07-30T05:09:44.748Z,99323.69
2022-07-30T05:12:12.868Z,99318.00
2022-07-30T05:14:46.576Z,99317.88
2022-07-30T05:17:15.242Z,99311.56
2022-07-30T05:19:43.259Z,99320.31
2022-07-30T05:22:11.409Z,99316.16
2022-07-30T05:24:38.493Z,99319.69
2022-07-30T05:27:06.540Z,99315.56
2022-07-30T05:29:36.714Z,99311.56
2022-07-30T05:32:07.328Z,99312.31
2022-07-30T05:34:39.987Z,99313.19
2022-07-30T05:37:07.352Z,99302.97
2022-07-30T05:40:02.956Z,99308.78
2022-07-30T05:42:30.146Z,99308.28
2022-07-30T05:44:58.217Z,99303.69
2022-07-30T05:47:26.876Z,99307.06
2022-07-30T05:50:02.873Z,99308.03
2022-07-30T05:52:36.192Z,99296.81
2022-07-30T05:55:11.397Z,99298.97
2022-07-30T05:57:39.328Z,99300.47
2022-07-30T06:00:12.665Z,99297.91
2022-07-30T06:02:41.007Z,99286.00
2022-07-30T06:05:09.293Z,99283.00
2022-07-30T06:07:36.350Z,99281.81
2022-07-30T06:10:05.024Z,99287.03
2022-07-30T06:12:32.171Z,99283.09
2022-07-30T06:14:59.601Z,99275.97
2022-07-30T06:17:27.636Z,99281.53
2022-07-30T06:19:54.700Z,99279.22
2022-07-30T06:22:25.804Z,99276.28
2022-07-30T06:24:53.219Z,99278.94
2022-07-30T06:27:21.971Z,99275.09
2022-07-30T06:29:49.207Z,99281.47
2022-07-30T06:32:17.773Z,99276.00
2022-07-30T06:34:44.787Z,99274.84
2022-07-30T06:37:13.030Z,99275.72
2022-07-30T06:39:56.677Z,99270.59
2022-07-30T06:42:24.852Z,99272.91
2022-07-30T06:44:53.076Z,99264.53
2022-07-30T06:47:26.387Z,99266.13
2022-07-30T06:49:54.561Z,99269.38
2022-07-30T06:52:21.684Z,99268.81
2022-07-30T06:54:49.007Z,99266.38
2022-07-30T06:57:19.147Z,99264.81
2022-07-30T06:59:56.209Z,99261.84
2022-07-30T07:02:24.823Z,99259.53
2022-07-30T07:04:53.013Z,99256.94
2022-07-30T07:07:40.238Z,99253.56
2022-07-30T07:10:09.112Z,99265.13
2022-07-30T07:12:38.605Z,99273.97
2022-07-30T07:15:07.290Z,99277.00
2022-07-30T07:17:35.752Z,99279.16
2022-07-30T07:20:05.010Z,99276.59
2022-07-30T07:22:33.080Z,99262.41
2022-07-30T07:25:00.077Z,99256.75
2022-07-30T07:27:34.610Z,99265.06
2022-07-30T07:30:05.943Z,99254.13
2022-07-30T07:32:34.603Z,99255.81
2022-07-30T07:35:02.055Z,99250.38
2022-07-30T07:37:29.132Z,99249.84
2022-07-30T07:39:57.614Z,99247.81
2022-07-30T07:42:26.337Z,99256.47
2022-07-30T07:44:53.502Z,99246.59
2022-07-30T07:47:26.443Z,99238.81
2022-07-30T07:50:05.972Z,99234.06
2022-07-30T07:52:33.949Z,99239.75
2022-07-30T07:55:08.572Z,99240.00
2022-07-30T07:57:42.987Z,99242.81
2022-07-30T08:00:12.192Z,99243.13
2022-07-30T08:02:42.217Z,99243.13
2022-07-30T08:05:10.863Z,99239.03
2022-07-30T08:07:40.823Z,99239.44
2022-07-30T08:10:09.040Z,99235.78
2022-07-30T08:12:36.232Z,99233.25
2022-07-30T08:15:04.200Z,99235.50
2022-07-30T08:17:32.270Z,99238.03
2022-07-30T08:20:01.025Z,99240.84
2022-07-30T08:22:30.408Z,99243.41
2022-07-30T08:24:57.442Z,99250.31
2022-07-30T08:27:24.530Z,99241.97
2022-07-30T08:29:57.001Z,99250.75
2022-07-30T08:32:27.610Z,99250.16
2022-07-30T08:34:54.796Z,99250.16
2022-07-30T08:37:21.840Z,99255.66
2022-07-30T08:39:48.859Z,99254.34
2022-07-30T08:42:17.052Z,99256.25
2022-07-30T08:45:09.438Z,99260.03
2022-07-30T08:47:40.434Z,99260.09
2022-07-30T08:50:09.083Z,99257.53
2022-07-30T08:52:37.936Z,99270.69
2022-07-30T08:55:05.860Z,99273.38
2022-07-30T08:57:35.571Z,99273.56
2022-07-30T09:00:10.273Z,99278.22
2022-07-30T09:02:38.313Z,99290.09
2022-07-30T09:05:06.512Z,99283.19
2022-07-30T09:07:36.940Z,99283.81
2022-07-30T09:10:05.943Z,99285.09
2022-07-30T09:12:45.021Z,99285.09
2022-07-30T09:15:20.579Z,99290.91
2022-07-30T09:18:07.645Z,99293.31
2022-07-30T09:20:46.804Z,99295.97
2022-07-30T09:23:41.708Z,99294.97
2022-07-30T09:26:21.025Z,99294.84
2022-07-30T09:28:50.137Z,99287.78
2022-07-30T09:31:18.832Z,99294.44
2022-07-30T09:33:48.972Z,99283.56
2022-07-30T09:36:20.341Z,99292.59
2022-07-30T09:39:10.953Z,99286.88
2022-07-30T09:41:40.019Z,99273.28
2022-07-30T09:44:08.013Z,99275.91
2022-07-30T09:46:53.768Z,99271.50
2022-07-30T09:49:27.210Z,99268.16
2022-07-30T09:52:07.801Z,99266.91
2022-07-30T09:55:00.431Z,99263.50
2022-07-30T09:57:28.532Z,99267.03
2022-07-30T10:00:01.757Z,99263.88
2022-07-30T10:03:00.918Z,99267.03
2022-07-30T10:05:50.708Z,99254.81
2022-07-30T10:08:20.371Z,99266.19
2022-07-30T10:11:09.541Z,99263.25
2022-07-30T10:13:45.761Z,99263.94
2022-07-30T10:16:21.863Z,99258.66
2022-07-30T10:19:03.632Z,99263.38
2022-07-30T10:21:43.404Z,99262.38
2022-07-30T10:24:12.824Z,99260.06
2022-07-30T10:26:42.903Z,99258.63
2022-07-30T10:29:18.799Z,99264.78
2022-07-30T10:32:04.179Z,99247.50
2022-07-30T10:34:42.626Z,99254.81
2022-07-30T10:37:12.789Z,99246.81
2022-07-30T10:40:10.860Z,99261.84
2022-07-30T10:43:02.696Z,99250.63
2022-07-30T10:46:09.287Z,99250.19
2022-07-30T10:49:19.544Z,99247.72
2022-07-30T10:52:18.368Z,99238.31
2022-07-30T10:55:12.800Z,99246.03
2022-07-30T10:58:03.952Z,99250.00
2022-07-30T11:00:57.266Z,99248.91
2022-07-30T11:03:41.014Z,99249.13
2022-07-30T11:06:16.368Z,99243.88
2022-07-30T11:08:48.073Z,99245.34
2022-07-30T11:12:01.624Z,99249.09
2022-07-30T11:14:10.634Z,99237.91
2022-07-30T11:16:38.626Z,99243.03
2022-07-30T11:19:56.662Z,99253.47
2022-07-30T11:22:25.656Z,99258.50
2022-07-30T11:24:55.193Z,99247.91
2022-07-30T11:27:42.393Z,99259.13
2022-07-30T11:30:23.562Z,99256.91
2022-07-30T11:33:15.774Z,99257.66
2022-07-30T11:35:45.005Z,99241.09
2022-07-30T11:38:18.948Z,99248.63
2022-07-30T11:40:46.229Z,99245.06
2022-07-30T11:43:36.190Z,99242.63
2022-07-30T11:46:28.507Z,99247.88
2022-07-30T11:49:00.688Z,99247.78
2022-07-30T11:51:45.741Z,99252.41
2022-07-30T11:54:14.312Z,99251.41
2022-07-30T11:57:24.583Z,99254.47
2022-07-30T12:00:24.826Z,99255.22
2022-07-30T12:03:03.819Z,99254.22
2022-07-30T12:05:40.708Z,99256.16
2022-07-30T12:08:08.678Z,99267.88
2022-07-30T12:11:01.603Z,99263.00
2022-07-30T12:13:45.083Z,99261.91
2022-07-30T12:16:17.999Z,99261.28
2022-07-30T12:18:53.594Z,99251.09
2022-07-30T12:21:21.814Z,99257.75
2022-07-30T12:24:01.070Z,99267.16
2022-07-30T12:26:36.859Z,99257.03
2022-07-30T12:29:14.797Z,99263.97
2022-07-30T12:31:46.557Z,99262.75
2022-07-30T12:34:35.154Z,99268.47
2022-07-30T12:37:15.564Z,99260.72
2022-07-30T12:39:44.891Z,99266.53
2022-07-30T12:43:00.453Z,99265.69
2022-07-30T12:45:51.538Z,99262.50
2022-07-30T12:48:34.752Z,99269.13
2022-07-30T12:51:09.148Z,99260.84
2022-07-30T12:53:37.560Z,99267.53
2022-07-30T12:56:16.588Z,99272.03
2022-07-30T12:58:48.796Z,99272.78
2022-07-30T13:01:39.606Z,99267.41
2022-07-30T13:04:10.779Z,99265.00
2022-07-30T13:06:42.827Z,99271.06
2022-07-30T13:09:22.519Z,99279.22
2022-07-30T13:11:51.627Z,99269.38
2022-07-30T13:14:37.928Z,99271.94
2022-07-30T13:17:07.615Z,99265.72
2022-07-30T13:19:37.105Z,99264.75
2022-07-30T13:22:13.779Z,99265.22
2022-07-30T13:24:41.930Z,99266.44
2022-07-30T13:27:10.105Z,99258.66
2022-07-30T13:29:37.080Z,99261.84
2022-07-30T13:32:04.577Z,99246.03
2022-07-30T13:34:31.802Z,99254.53
2022-07-30T13:37:02.085Z,99251.97
2022-07-30T13:39:31.324Z,99249.91
2022-07-30T13:42:04.934Z,99245.50
2022-07-30T13:44:32.181Z,99239.22
2022-07-30T13:47:08.826Z,99240.91
2022-07-30T13:49:39.335Z,99232.28
2022-07-30T13:52:06.594Z,99229.97
2022-07-30T13:54:34.815Z,99226.06
2022-07-30T13:57:04.404Z,99225.81
2022-07-30T13:59:31.764Z,99223.47
2022-07-30T14:02:06.600Z,99216.75
2022-07-30T14:04:35.912Z,99225.19
2022-07-30T14:07:06.175Z,99211.31
2022-07-30T14:09:33.458Z,99213.84
2022-07-30T14:12:12.699Z,99210.47
2022-07-30T14:14:40.123Z,99213.84
2022-07-30T14:17:08.428Z,99207.56
2022-07-30T14:19:56.258Z,99205.72
2022-07-30T14:22:24.401Z,99207.66
2022-07-30T14:24:51.471Z,99194.19
2022-07-30T14:27:20.752Z,99205.50
2022-07-30T14:29:50.875Z,99185.03
2022-07-30T14:32:18.617Z,99194.88
2022-07-30T14:34:49.216Z,99189.31
2022-07-30T14:37:20.372Z,99196.63
2022-07-30T14:39:49.454Z,99188.00
2022-07-30T14:42:25.867Z,99190.44
2022-07-30T14:44:56.964Z,99190.06
2022-07-30T14:47:24.370Z,99187.63
2022-07-30T14:50:13.889Z,99196.00
2022-07-30T14:53:00.299Z,99196.63
2022-07-30T14:55:31.449Z,99196.63
2022-07-30T14:58:08.013Z,99198.31
2022-07-30T15:04:15.786Z,99196.00
2022-07-30T15:06:43.479Z,99193.53
2022-07-30T15:09:10.941Z,99188.97
2022-07-30T15:12:08.772Z,99198.03
2022-07-30T15:14:30.975Z,99192.69
2022-07-30T15:17:04.554Z,99184.41
2022-07-30T15:19:32.611Z,99185.78
2022-07-30T15:22:31.772Z,99191.47
2022-07-30T15:25:00.768Z,99181.75
2022-07-30T15:27:34.087Z,99189.53
2022-07-30T15:30:04.624Z,99181.88
2022-07-30T15:32:37.751Z,99181.13
2022-07-30T15:35:10.601Z,99182.94
2022-07-30T15:37:41.383Z,99182.72
2022-07-30T15:40:08.768Z,99182.13
2022-07-30T15:42:35.915Z,99183.09
2022-07-30T15:45:17.234Z,99192.19
2022-07-30T15:47:45.476Z,99188.88
2022-07-30T15:50:13.882Z,99189.50
2022-07-30T15:52:41.069Z,99189.13
2022-07-30T15:55:09.924Z,99194.25
2022-07-30T15:57:37.126Z,99203.31
2022-07-30T16:00:08.097Z,99202.72
2022-07-30T16:02:38.213Z,99202.69
2022-07-30T16:05:09.497Z,99208.56
2022-07-30T16:07:41.974Z,99205.94
2022-07-30T16:10:10.360Z,99207.41
2022-07-30T16:12:37.404Z,99206.19
2022-07-30T16:15:07.350Z,99205.31
2022-07-30T16:17:37.214Z,99202.81
2022-07-30T16:20:10.735Z,99197.34
2022-07-30T16:22:44.082Z,99188.97
2022-07-30T16:25:11.873Z,99189.69
2022-07-30T16:27:39.024Z,99195.94
2022-07-30T16:30:29.575Z,99195.19
2022-07-30T16:33:18.841Z,99189.13
2022-07-30T16:35:58.057Z,99191.53
2022-07-30T16:38:33.092Z,99188.38
2022-07-30T16:41:25.317Z,99189.66
2022-07-30T16:43:52.326Z,99190.09
2022-07-30T16:46:25.668Z,99199.19
2022-07-30T16:48:55.971Z,99202.28
2022-07-30T16:51:53.469Z,99197.72
2022-07-30T16:54:28.740Z,99198.69
2022-07-30T16:57:03.985Z,99200.59
2022-07-30T16:59:37.518Z,99198.56
2022-07-30T17:02:08.737Z,99195.47
2022-07-30T17:04:56.046Z,99201.28
2022-07-30T17:07:26.165Z,99200.81
2022-07-30T17:09:53.974Z,99199.53
2022-07-30T17:12:40.309Z,99192.31
2022-07-30T17:15:17.122Z,99198.41
2022-07-30T17:18:06.049Z,99193.06
2022-07-30T17:20:43.172Z,99182.41
2022-07-30T17:23:24.724Z,99187.25
2022-07-30T17:26:15.761Z,99183.38
2022-07-30T17:28:53.854Z,99185.06
2022-07-30T17:31:25.908Z,99187.47
2022-07-30T17:33:59.762Z,99188.00
2022-07-30T17:36:37.518Z,99181.69
2022-07-30T17:39:06.528Z,99182.25
2022-07-30T17:41:58.956Z,99192.59
2022-07-30T17:44:56.579Z,99181.69
2022-07-30T17:47:25.670Z,99173.69
2022-07-30T17:49:53.722Z,99177.03
2022-07-30T17:52:35.222Z,99174.53
2022-07-30T17:55:03.418Z,99175.84
2022-07-30T17:57:57.516Z,99170.66
2022-07-30T18:00:32.184Z,99170.25
2022-07-30T18:03:09.609Z,99181.47
2022-07-30T18:05:51.331Z,99177.75
2022-07-30T18:08:20.394Z,99179.88
2022-07-30T18:10:50.595Z,99176.28
2022-07-30T18:13:26.651Z,99169.47
2022-07-30T18:16:28.882Z,99168.41
2022-07-30T18:18:56.299Z,99169.25
2022-07-30T18:21:38.507Z,99171.34
2022-07-30T18:24:17.968Z,99168.78
2022-07-30T18:27:01.160Z,99174.66
2022-07-30T18:29:34.614Z,99169.66
2022-07-30T18:32:06.303Z,99175.22
2022-07-30T18:35:12.042Z,99161.25
2022-07-30T18:37:41.757Z,99164.97
2022-07-30T18:40:12.089Z,99158.34
2022-07-30T18:42:59.564Z,99161.47
2022-07-30T18:45:37.083Z,99158.56
2022-07-30T18:48:05.039Z,99159.56
2022-07-30T18:50:47.091Z,99158.34
2022-07-30T18:53:36.869Z,99168.41
2022-07-30T18:56:20.580Z,99160.56
2022-07-30T18:59:01.516Z,99158.09
2022-07-30T19:01:39.445Z,99158.09
2022-07-30T19:04:32.221Z,99166.38
2022-07-30T19:07:01.518Z,99160.59
2022-07-30T19:09:28.687Z,99162.38
2022-07-30T19:12:14.263Z,99163.44
2022-07-30T19:14:57.278Z,99170.56
2022-07-30T19:18:28.134Z,99168.13
2022-07-30T19:21:32.302Z,99159.97
2022-07-30T19:24:00.526Z,99153.66
2022-07-30T19:26:28.253Z,99154.19
2022-07-30T19:28:57.780Z,99151.44
2022-07-30T19:31:26.529Z,99142.13
2022-07-30T19:34:01.830Z,99153.13
2022-07-30T19:36:37.463Z,99151.63
2022-07-30T19:39:07.444Z,99149.50
2022-07-30T19:41:41.597Z,99141.63
2022-07-30T19:44:11.700Z,99150.28
2022-07-30T19:46:41.426Z,99147.19
2022-07-30T19:49:11.419Z,99145.94
2022-07-30T19:52:10.747Z,99150.63
2022-07-30T19:54:38.829Z,99147.41
2022-07-30T19:57:06.111Z,99136.06
2022-07-30T19:59:55.807Z,99135.03
2022-07-30T20:02:22.703Z,99133.47
2022-07-30T20:04:51.787Z,99140.59
2022-07-30T20:07:18.860Z,99132.72
2022-07-30T20:09:48.639Z,99126.53
2022-07-30T20:12:21.451Z,99124.44
2022-07-30T20:14:53.356Z,99123.66
2022-07-30T20:17:20.558Z,99124.66
2022-07-30T20:19:48.867Z,99126.25
2022-07-30T20:22:20.595Z,99120.16
2022-07-30T20:24:49.109Z,99112.22
2022-07-30T20:27:36.073Z,99102.25
2022-07-30T20:30:17.501Z,99099.06
2022-07-30T20:32:53.736Z,99101.75
2022-07-30T20:35:28.293Z,99092.75
2022-07-30T20:38:10.400Z,99087.88
2022-07-30T20:40:47.659Z,99094.88
2022-07-30T20:43:19.055Z,99085.81
2022-07-30T20:45:50.616Z,99094.81
2022-07-30T20:48:31.454Z,99087.13
2022-07-30T20:51:09.531Z,99088.41
2022-07-30T20:53:37.714Z,99081.09
2022-07-30T20:56:05.059Z,99080.03
2022-07-30T20:58:33.105Z,99074.06
2022-07-30T21:01:00.863Z,99078.22
2022-07-30T21:03:32.025Z,99068.66
2022-07-30T21:06:14.854Z,99070.00
2022-07-30T21:08:41.823Z,99077.78
2022-07-30T21:11:09.609Z,99079.34
2022-07-30T21:14:06.577Z,99068.78
2022-07-30T21:16:39.580Z,99077.78
2022-07-30T21:19:26.044Z,99077.44
2022-07-30T21:22:14.560Z,99067.50
2022-07-30T21:24:45.702Z,99075.31
2022-07-30T21:27:41.404Z,99073.03
2022-07-30T21:30:10.933Z,99072.78
2022-07-30T21:33:15.186Z,99074.00
2022-07-30T21:36:33.293Z,99072.06
2022-07-30T21:39:29.305Z,99075.25
2022-07-30T21:41:59.301Z,99076.72
2022-07-30T21:44:27.524Z,99067.72
2022-07-30T21:47:00.771Z,99060.44
2022-07-30T21:52:49.738Z,99079.63
2022-07-30T21:55:21.514Z,99077.19
2022-07-30T21:57:50.798Z,99086.66
2022-07-30T22:00:50.351Z,99083.75
2022-07-30T22:04:04.311Z,99083.75
2022-07-30T22:06:54.798Z,99083.50
2022-07-30T22:09:34.435Z,99081.56
2022-07-30T22:13:07.486Z,99079.88
2022-07-30T22:16:38.517Z,99074.06
2022-07-30T22:19:15.867Z,99083.41
2022-07-30T22:22:26.646Z,99082.06
2022-07-30T22:25:01.611Z,99075.88
2022-07-30T22:27:39.969Z,99082.19
2022-07-30T22:30:18.558Z,99077.94
2022-07-30T22:32:46.829Z,99083.28
2022-07-30T22:35:17.010Z,99078.69
2022-07-30T22:37:49.991Z,99076.00
2022-07-30T22:40:16.940Z,99086.69
2022-07-30T22:42:49.536Z,99090.94
2022-07-30T22:45:17.204Z,99091.78
2022-07-30T22:48:10.072Z,99087.66
2022-07-30T22:50:39.886Z,99087.19
2022-07-30T22:53:23.439Z,99091.78
2022-07-30T22:55:55.081Z,99090.59
2022-07-30T22:58:29.696Z,99097.50
2022-07-30T23:00:56.781Z,99088.63
2022-07-30T23:03:43.506Z,99098.34
2022-07-30T23:06:14.667Z,99098.25
2022-07-30T23:08:43.281Z,99094.72
2022-07-30T23:11:11.619Z,99094.97
2022-07-30T23:13:47.928Z,99095.81
2022-07-30T23:16:16.904Z,99094.22
2022-07-30T23:18:49.044Z,99102.59
2022-07-30T23:21:32.211Z,99114.63
2022-07-30T23:24:47.931Z,99106.00
2022-07-30T23:27:17.147Z,99107.19
2022-07-30T23:30:11.483Z,99112.91
2022-07-30T23:32:45.543Z,99121.38
2022-07-30T23:35:21.029Z,99119.06
2022-07-30T23:38:00.307Z,99129.88
2022-07-30T23:40:35.935Z,99123.31
2022-07-30T23:43:32.054Z,99126.34
2022-07-30T23:46:00.574Z,99130.09
2022-07-30T23:48:44.197Z,99130.22
2022-07-30T23:51:12.283Z,99133.84
2022-07-30T23:53:41.493Z,99131.06
2022-07-30T23:56:16.969Z,99135.91
2022-07-30T23:58:48.747Z,99136.88
